sensor_id;sensor_type;location;lat;lon;timestamp;P1;durP1;ratioP1;P2;durP2;ratioP2
19402;SDS011;9837;48.888;8.998;2022-10-31T04:00:55;9.40;;;4.20;;
19402;SDS011;9837;48.888;8.998;2022-10-31T04:03:26;4.53;;;3.30;;
19402;SDS011;9837;48.888;8.998;2022-10-31T04:05:55;5.07;;;3.10;;
19402;SDS011;9837;48.888;8.998;2022-10-31T04:08:24;11.23;;;3.20;;
19402;SDS011;9837;48.888;8.998;2022-10-31T04:10:53;9.73;;;3.57;;
19402;SDS011;9837;48.888;8.998;2022-10-31T06:18:04;14.40;;;7.27;;
19402;SDS011;9837;48.888;8.998;2022-10-31T07:48:10;16.23;;;5.00;;
19402;SDS011;9837;48.888;8.998;2022-10-31T10:17:37;10.20;;;5.70;;
19402;SDS011;9837;48.888;8.998;2022-10-31T10:22:40;12.60;;;5.60;;
19402;SDS011;9837;48.888;8.998;2022-10-31T10:25:38;11.40;;;5.07;;
19402;SDS011;9837;48.888;8.998;2022-10-31T10:28:15;13.03;;;5.80;;
19402;SDS011;9837;48.888;8.998;2022-10-31T10:30:47;9.90;;;4.90;;
19402;SDS011;9837;48.888;8.998;2022-10-31T10:33:19;7.53;;;4.83;;
19402;SDS011;9837;48.888;8.998;2022-10-31T10:35:53;11.33;;;5.67;;
19402;SDS011;9837;48.888;8.998;2022-10-31T10:41:11;10.60;;;5.37;;
19402;SDS011;9837;48.888;8.998;2022-10-31T10:43:43;19.10;;;6.33;;
19402;SDS011;9837;48.888;8.998;2022-10-31T10:46:27;15.83;;;6.07;;
19402;SDS011;9837;48.888;8.998;2022-10-31T11:00:19;11.13;;;5.93;;
19402;SDS011;9837;48.888;8.998;2022-10-31T11:02:46;10.57;;;5.17;;
19402;SDS011;9837;48.888;8.998;2022-10-31T11:05:15;14.57;;;5.70;;
19402;SDS011;9837;48.888;8.998;2022-10-31T11:07:49;11.97;;;5.53;;
19402;SDS011;9837;48.888;8.998;2022-10-31T11:10:15;14.87;;;5.93;;
19402;SDS011;9837;48.888;8.998;2022-10-31T11:12:42;16.20;;;6.83;;
19402;SDS011;9837;48.888;8.998;2022-10-31T11:15:23;11.57;;;6.03;;
19402;SDS011;9837;48.888;8.998;2022-10-31T11:17:51;13.27;;;6.20;;
19402;SDS011;9837;48.888;8.998;2022-10-31T11:22:46;8.00;;;6.13;;
19402;SDS011;9837;48.888;8.998;2022-10-31T11:27:44;14.03;;;7.00;;
19402;SDS011;9837;48.888;8.998;2022-10-31T11:30:11;21.20;;;7.53;;
19402;SDS011;9837;48.888;8.998;2022-10-31T11:32:41;16.87;;;8.00;;
19402;SDS011;9837;48.888;8.998;2022-10-31T11:35:14;16.27;;;8.23;;
19402;SDS011;9837;48.888;8.998;2022-10-31T11:37:43;14.03;;;8.00;;
19402;SDS011;9837;48.888;8.998;2022-10-31T11:40:14;16.17;;;8.60;;
19402;SDS011;9837;48.888;8.998;2022-10-31T11:42:46;18.23;;;8.83;;
19402;SDS011;9837;48.888;8.998;2022-10-31T11:47:48;15.33;;;8.60;;
19402;SDS011;9837;48.888;8.998;2022-10-31T11:50:20;14.53;;;8.60;;
19402;SDS011;9837;48.888;8.998;2022-10-31T11:53:01;22.13;;;8.63;;
19402;SDS011;9837;48.888;8.998;2022-10-31T11:55:35;14.60;;;7.40;;
19402;SDS011;9837;48.888;8.998;2022-10-31T11:58:03;16.57;;;8.87;;
19402;SDS011;9837;48.888;8.998;2022-10-31T12:00:38;10.30;;;7.47;;
19402;SDS011;9837;48.888;8.998;2022-10-31T12:05:37;14.67;;;7.30;;
19402;SDS011;9837;48.888;8.998;2022-10-31T12:08:06;17.00;;;8.00;;
19402;SDS011;9837;48.888;8.998;2022-10-31T12:10:41;13.57;;;7.60;;
19402;SDS011;9837;48.888;8.998;2022-10-31T12:13:36;13.30;;;7.67;;
19402;SDS011;9837;48.888;8.998;2022-10-31T12:19:05;11.90;;;6.97;;
19402;SDS011;9837;48.888;8.998;2022-10-31T12:24:13;11.20;;;8.17;;
19402;SDS011;9837;48.888;8.998;2022-10-31T12:26:49;13.90;;;8.37;;
19402;SDS011;9837;48.888;8.998;2022-10-31T12:35:00;15.40;;;7.87;;
19402;SDS011;9837;48.888;8.998;2022-10-31T12:46:04;23.27;;;8.03;;
19402;SDS011;9837;48.888;8.998;2022-10-31T12:52:02;11.03;;;7.63;;
19402;SDS011;9837;48.888;8.998;2022-10-31T13:00:16;18.33;;;7.60;;
19402;SDS011;9837;48.888;8.998;2022-10-31T13:03:02;14.47;;;7.60;;
19402;SDS011;9837;48.888;8.998;2022-10-31T13:05:51;13.60;;;6.93;;
19402;SDS011;9837;48.888;8.998;2022-10-31T13:16:04;15.77;;;7.80;;
19402;SDS011;9837;48.888;8.998;2022-10-31T13:18:47;22.73;;;7.67;;
19402;SDS011;9837;48.888;8.998;2022-10-31T13:21:18;14.30;;;7.33;;
19402;SDS011;9837;48.888;8.998;2022-10-31T13:23:59;12.07;;;7.53;;
19402;SDS011;9837;48.888;8.998;2022-10-31T13:26:38;29.07;;;9.13;;
19402;SDS011;9837;48.888;8.998;2022-10-31T13:29:11;22.40;;;7.57;;
19402;SDS011;9837;48.888;8.998;2022-10-31T13:31:54;29.30;;;7.30;;
19402;SDS011;9837;48.888;8.998;2022-10-31T13:34:29;24.83;;;8.60;;
19402;SDS011;9837;48.888;8.998;2022-10-31T13:45:30;19.30;;;7.57;;
19402;SDS011;9837;48.888;8.998;2022-10-31T13:50:39;13.33;;;7.10;;
19402;SDS011;9837;48.888;8.998;2022-10-31T13:53:14;11.57;;;6.33;;
19402;SDS011;9837;48.888;8.998;2022-10-31T13:55:44;15.13;;;6.83;;
19402;SDS011;9837;48.888;8.998;2022-10-31T13:58:28;13.77;;;7.13;;
19402;SDS011;9837;48.888;8.998;2022-10-31T14:03:36;16.07;;;6.83;;
19402;SDS011;9837;48.888;8.998;2022-10-31T14:06:03;11.93;;;6.90;;
19402;SDS011;9837;48.888;8.998;2022-10-31T14:08:31;19.40;;;7.87;;
19402;SDS011;9837;48.888;8.998;2022-10-31T14:10:59;16.10;;;7.13;;
19402;SDS011;9837;48.888;8.998;2022-10-31T14:13:27;14.43;;;8.27;;
19402;SDS011;9837;48.888;8.998;2022-10-31T14:16:07;15.77;;;7.87;;
19402;SDS011;9837;48.888;8.998;2022-10-31T14:18:43;19.33;;;8.40;;
19402;SDS011;9837;48.888;8.998;2022-10-31T14:21:58;12.93;;;8.17;;
19402;SDS011;9837;48.888;8.998;2022-10-31T14:24:13;16.57;;;7.67;;
19402;SDS011;9837;48.888;8.998;2022-10-31T14:29:23;18.83;;;7.80;;
19402;SDS011;9837;48.888;8.998;2022-10-31T14:31:55;16.17;;;7.20;;
19402;SDS011;9837;48.888;8.998;2022-10-31T14:34:31;20.37;;;8.43;;
19402;SDS011;9837;48.888;8.998;2022-10-31T14:50:47;16.57;;;8.10;;
19402;SDS011;9837;48.888;8.998;2022-10-31T14:53:39;12.93;;;8.13;;
19402;SDS011;9837;48.888;8.998;2022-10-31T14:56:11;16.50;;;9.00;;
19402;SDS011;9837;48.888;8.998;2022-10-31T14:58:38;14.53;;;7.77;;
19402;SDS011;9837;48.888;8.998;2022-10-31T15:01:04;14.60;;;8.07;;
19402;SDS011;9837;48.888;8.998;2022-10-31T15:03:38;17.17;;;7.93;;
19402;SDS011;9837;48.888;8.998;2022-10-31T15:06:11;14.27;;;7.83;;
19402;SDS011;9837;48.888;8.998;2022-10-31T15:11:16;14.33;;;8.00;;
19402;SDS011;9837;48.888;8.998;2022-10-31T15:13:50;13.73;;;7.80;;
19402;SDS011;9837;48.888;8.998;2022-10-31T15:16:30;10.23;;;7.00;;
19402;SDS011;9837;48.888;8.998;2022-10-31T15:19:10;20.77;;;7.33;;
19402;SDS011;9837;48.888;8.998;2022-10-31T15:21:41;13.83;;;7.17;;
19402;SDS011;9837;48.888;8.998;2022-10-31T15:24:10;14.17;;;7.17;;
19402;SDS011;9837;48.888;8.998;2022-10-31T15:26:44;20.00;;;7.57;;
19402;SDS011;9837;48.888;8.998;2022-10-31T15:29:16;12.00;;;7.00;;
19402;SDS011;9837;48.888;8.998;2022-10-31T15:34:56;16.20;;;7.87;;
19402;SDS011;9837;48.888;8.998;2022-10-31T15:37:22;14.23;;;8.23;;
19402;SDS011;9837;48.888;8.998;2022-10-31T15:39:50;14.93;;;7.57;;
19402;SDS011;9837;48.888;8.998;2022-10-31T15:42:18;15.60;;;7.57;;
19402;SDS011;9837;48.888;8.998;2022-10-31T15:45:38;14.30;;;7.20;;
19402;SDS011;9837;48.888;8.998;2022-10-31T15:47:38;17.63;;;8.53;;
19402;SDS011;9837;48.888;8.998;2022-10-31T15:50:19;18.07;;;10.10;;
19402;SDS011;9837;48.888;8.998;2022-10-31T15:52:48;16.03;;;9.47;;
19402;SDS011;9837;48.888;8.998;2022-10-31T15:55:16;16.37;;;9.10;;
19402;SDS011;9837;48.888;8.998;2022-10-31T15:57:47;14.37;;;7.93;;
19402;SDS011;9837;48.888;8.998;2022-10-31T16:05:43;17.00;;;9.53;;
19402;SDS011;9837;48.888;8.998;2022-10-31T16:08:22;17.63;;;8.20;;
19402;SDS011;9837;48.888;8.998;2022-10-31T16:10:57;21.87;;;9.23;;
19402;SDS011;9837;48.888;8.998;2022-10-31T16:13:35;19.10;;;11.07;;
19402;SDS011;9837;48.888;8.998;2022-10-31T16:23:58;21.37;;;11.53;;
19402;SDS011;9837;48.888;8.998;2022-10-31T16:32:04;20.70;;;14.27;;
19402;SDS011;9837;48.888;8.998;2022-10-31T16:55:49;27.73;;;16.20;;
19402;SDS011;9837;48.888;8.998;2022-10-31T16:58:50;28.00;;;15.77;;
19402;SDS011;9837;48.888;8.998;2022-10-31T17:01:22;29.47;;;16.87;;
19402;SDS011;9837;48.888;8.998;2022-10-31T17:21:45;24.23;;;13.20;;
19402;SDS011;9837;48.888;8.998;2022-10-31T17:24:57;25.47;;;11.67;;
19402;SDS011;9837;48.888;8.998;2022-10-31T17:32:56;26.10;;;12.83;;
19402;SDS011;9837;48.888;8.998;2022-10-31T17:36:03;21.97;;;12.73;;
19402;SDS011;9837;48.888;8.998;2022-10-31T17:51:01;42.17;;;15.53;;
19402;SDS011;9837;48.888;8.998;2022-10-31T18:01:43;29.23;;;13.70;;
19402;SDS011;9837;48.888;8.998;2022-10-31T18:04:10;22.97;;;12.30;;
19402;SDS011;9837;48.888;8.998;2022-10-31T18:06:36;32.03;;;12.23;;
19402;SDS011;9837;48.888;8.998;2022-10-31T18:09:03;20.97;;;12.07;;
19402;SDS011;9837;48.888;8.998;2022-10-31T18:11:30;24.17;;;12.17;;
19402;SDS011;9837;48.888;8.998;2022-10-31T18:13:57;25.30;;;15.33;;
19402;SDS011;9837;48.888;8.998;2022-10-31T18:16:24;22.97;;;14.93;;
19402;SDS011;9837;48.888;8.998;2022-10-31T18:18:51;20.27;;;12.57;;
19402;SDS011;9837;48.888;8.998;2022-10-31T18:21:20;32.20;;;13.77;;
19402;SDS011;9837;48.888;8.998;2022-10-31T18:23:53;20.87;;;11.93;;
19402;SDS011;9837;48.888;8.998;2022-10-31T18:26:21;23.93;;;12.77;;
19402;SDS011;9837;48.888;8.998;2022-10-31T18:31:37;21.07;;;11.43;;
19402;SDS011;9837;48.888;8.998;2022-10-31T18:34:04;21.10;;;11.70;;
19402;SDS011;9837;48.888;8.998;2022-10-31T18:44:17;16.90;;;9.47;;
19402;SDS011;9837;48.888;8.998;2022-10-31T18:46:44;18.13;;;9.50;;
19402;SDS011;9837;48.888;8.998;2022-10-31T18:49:10;23.10;;;10.37;;
19402;SDS011;9837;48.888;8.998;2022-10-31T18:51:37;20.60;;;10.87;;
19402;SDS011;9837;48.888;8.998;2022-10-31T18:54:04;20.83;;;10.07;;
19402;SDS011;9837;48.888;8.998;2022-10-31T18:56:30;20.07;;;11.33;;
19402;SDS011;9837;48.888;8.998;2022-10-31T18:59:00;18.03;;;11.13;;
19402;SDS011;9837;48.888;8.998;2022-10-31T19:01:27;18.03;;;10.90;;
19402;SDS011;9837;48.888;8.998;2022-10-31T19:03:54;19.57;;;10.47;;
19402;SDS011;9837;48.888;8.998;2022-10-31T19:06:22;19.23;;;10.00;;
19402;SDS011;9837;48.888;8.998;2022-10-31T19:08:55;17.77;;;9.07;;
19402;SDS011;9837;48.888;8.998;2022-10-31T19:11:26;15.83;;;9.00;;
19402;SDS011;9837;48.888;8.998;2022-10-31T19:13:56;14.40;;;8.03;;
19402;SDS011;9837;48.888;8.998;2022-10-31T19:16:22;12.80;;;8.07;;
19402;SDS011;9837;48.888;8.998;2022-10-31T19:18:51;16.57;;;7.70;;
19402;SDS011;9837;48.888;8.998;2022-10-31T19:21:21;14.30;;;7.07;;
19402;SDS011;9837;48.888;8.998;2022-10-31T19:23:50;16.33;;;7.50;;
19402;SDS011;9837;48.888;8.998;2022-10-31T19:26:17;17.57;;;7.67;;
19402;SDS011;9837;48.888;8.998;2022-10-31T19:28:43;12.63;;;6.70;;
19402;SDS011;9837;48.888;8.998;2022-10-31T19:31:10;13.27;;;6.53;;
19402;SDS011;9837;48.888;8.998;2022-10-31T19:33:36;9.67;;;6.00;;
19402;SDS011;9837;48.888;8.998;2022-10-31T19:41:15;19.90;;;11.27;;
19402;SDS011;9837;48.888;8.998;2022-10-31T19:44:00;13.07;;;5.97;;
19402;SDS011;9837;48.888;8.998;2022-10-31T19:46:26;15.20;;;6.00;;
19402;SDS011;9837;48.888;8.998;2022-10-31T19:48:52;16.43;;;8.43;;
19402;SDS011;9837;48.888;8.998;2022-10-31T19:51:25;17.00;;;6.70;;
19402;SDS011;9837;48.888;8.998;2022-10-31T19:53:52;16.20;;;7.07;;
19402;SDS011;9837;48.888;8.998;2022-10-31T20:38:38;13.27;;;6.37;;
